Sturgeon Bay, WI

11:12 AM CDT on May 22, 2017 (GMT -0500)
Door County Cherryland

Weather History for KSUE - March, 2014

Change the Weather History Date:

Sunday, March 2, 2014

  Actual Average Record
Temperature  
Mean Temperature 0 °F -  
Max Temperature 6 °F 34 °F 52 °F (1964)
Min Temperature -5 °F 18 °F -23 °F (1962)
Degree Days  
Heating Degree Days 64    
Moisture  
Dew Point -15 °F    
Average Humidity 48    
Maximum Humidity 66    
Minimum Humidity 34    
Precipitation  
Precipitation 0.00 in - - ()
Sea Level Pressure  
Sea Level Pressure 30.36 in    
Wind  
Wind Speed 11 mph (WNW)    
Max Wind Speed 15 mph    
Max Gust Speed 20 mph    
Visibility 10 miles    
Events      
Averages and records for this station are not official NWS values.
T = Trace of Precipitation, MM = Missing Value Source: NWS Daily Summary

Daily Weather History Graph

Daily Weather History Graph

Search for Another Location

Airport or City:

Trip Planner

Search our weather history database for the weather conditions in past years. The results will help you decide how hot, cold, wet, or windy it might be!

Date:

Astronomy

Mar. 02, 2014 Rise Set
Actual Time 6:25 AM CST 5:38 PM CST
Civil Twilight 5:56 AM CST 6:08 PM CST
Nautical Twilight 5:22 AM CST 6:41 PM CST
Astronomical Twilight 4:48 AM CST 7:15 PM CST
Moon 6:51 AM CST (3/2) 7:41 PM CST (3/2)
Length of Visible Light 12h 11m
Length of Day
11h 13m
Waxing Crescent, 3% of the Moon is Illuminated
Mar 2
Waxing Crescent
Mar 8
First Quarter
Mar 16
Full
Mar 23
Last Quarter
Mar 30
New

Hourly Weather History & Observations

Time (CST) Temp. Windchill Dew Point Humidity Pressure Visibility Wind Dir Wind Speed Gust Speed Precip Events Conditions
12:15 AM 3.2 °F -15.3 °F -5.8 °F 66% 30.33 in 5.0 mi NNE 15.0 mph 19.6 mph N/A   Overcast
12:35 AM 1.4 °F -17.6 °F -7.6 °F 66% 30.35 in 9.0 mi North 15.0 mph - N/A   Overcast
12:55 AM 1.4 °F -16.9 °F -7.6 °F 66% 30.35 in 10.0 mi North 13.8 mph - N/A   Overcast
1:15 AM 1.4 °F -15.3 °F -7.6 °F 66% 30.36 in 10.0 mi North 11.5 mph - N/A   Overcast
1:35 AM 1.4 °F -15.3 °F -9.4 °F 61% 30.37 in 10.0 mi North 11.5 mph - N/A   Overcast
1:55 AM 1.4 °F -16.9 °F -9.4 °F 61% 30.37 in 10.0 mi North 13.8 mph - N/A   Overcast
2:15 AM -0.4 °F -18.4 °F -11.2 °F 60% 30.37 in 10.0 mi North 12.7 mph - N/A   Overcast
2:35 AM -0.4 °F -18.4 °F -11.2 °F 60% 30.37 in 10.0 mi North 12.7 mph - N/A   Overcast
2:55 AM -0.4 °F -17.6 °F - N/A% 30.38 in 10.0 mi North 11.5 mph - N/A   Overcast
3:15 AM -0.4 °F -15.7 °F -11.2 °F 60% 30.37 in 10.0 mi North 9.2 mph - N/A   Overcast
3:35 AM -0.4 °F -15.7 °F -11.2 °F 60% 30.37 in 10.0 mi North 9.2 mph - N/A   Overcast
3:55 AM -0.4 °F -16.7 °F -11.2 °F 60% 30.37 in 10.0 mi North 10.4 mph - N/A   Overcast
4:15 AM -0.4 °F -18.4 °F -11.2 °F 60% 30.37 in 10.0 mi North 12.7 mph - N/A   Overcast
4:35 AM -0.4 °F -17.6 °F -11.2 °F 60% 30.38 in 10.0 mi North 11.5 mph - N/A   Overcast
4:55 AM -0.4 °F -16.7 °F -14.8 °F 51% 30.38 in 10.0 mi North 10.4 mph - N/A   Overcast
5:15 AM -0.4 °F -17.6 °F -13.0 °F 55% 30.38 in 10.0 mi North 11.5 mph - N/A   Overcast
5:35 AM -2.2 °F -19.9 °F -14.8 °F 55% 30.37 in 10.0 mi North 11.5 mph - N/A   Overcast
5:55 AM -2.2 °F -19.9 °F -14.8 °F 55% 30.38 in 10.0 mi North 11.5 mph - N/A   Overcast
6:15 AM -2.2 °F -18.0 °F -14.8 °F 55% 30.38 in 10.0 mi North 9.2 mph - N/A   Overcast
6:35 AM -2.2 °F -16.8 °F -14.8 °F 55% 30.38 in 10.0 mi NNW 8.1 mph - N/A   Overcast
6:55 AM -4.0 °F -19.0 °F -14.8 °F 60% 30.39 in 10.0 mi NNW 8.1 mph - N/A   Overcast
7:15 AM -4.0 °F -19.0 °F -16.6 °F 55% 30.40 in 10.0 mi North 8.1 mph - N/A   Overcast
7:35 AM -5.8 °F -19.9 °F -16.6 °F 60% 30.40 in 10.0 mi NNW 6.9 mph - N/A   Mostly Cloudy
7:55 AM -5.8 °F -19.9 °F -16.6 °F 60% 30.40 in 10.0 mi NNW 6.9 mph - N/A   Partly Cloudy
8:15 AM -2.2 °F -18.0 °F -16.6 °F 50% 30.40 in 10.0 mi NW 9.2 mph - N/A   Clear
8:35 AM -2.2 °F -18.9 °F -18.4 °F 46% 30.40 in 10.0 mi NNW 10.4 mph - N/A   Clear
8:55 AM -2.2 °F -16.8 °F -16.6 °F 50% 30.39 in 10.0 mi NW 8.1 mph - N/A   Clear
9:15 AM -2.2 °F -18.9 °F -16.6 °F 50% 30.39 in 10.0 mi WNW 10.4 mph - N/A   Clear
9:35 AM -2.2 °F -16.8 °F -16.6 °F 50% 30.39 in 10.0 mi WNW 8.1 mph - N/A   Clear
9:55 AM -2.2 °F -18.0 °F -18.4 °F 46% 30.39 in 10.0 mi West 9.2 mph - N/A   Clear
10:15 AM -2.2 °F -15.6 °F -18.4 °F 46% 30.39 in 10.0 mi West 6.9 mph - N/A   Clear
10:35 AM -0.4 °F -15.7 °F -18.4 °F 43% 30.39 in 10.0 mi WNW 9.2 mph - N/A   Clear
10:55 AM -0.4 °F -16.7 °F -16.6 °F 46% 30.38 in 10.0 mi WNW 10.4 mph - N/A   Clear
11:15 AM -0.4 °F -14.7 °F -16.6 °F 46% 30.39 in 10.0 mi West 8.1 mph - N/A   Clear
11:35 AM -0.4 °F -16.7 °F -18.4 °F 43% 30.39 in 10.0 mi West 10.4 mph - N/A   Clear
11:55 AM 1.4 °F -15.3 °F -16.6 °F 43% 30.38 in 10.0 mi West 11.5 mph - N/A   Clear
12:15 PM 1.4 °F -13.5 °F -16.6 °F 43% 30.37 in 10.0 mi West 9.2 mph - N/A   Clear
12:35 PM 1.4 °F -14.5 °F -14.8 °F 47% 30.37 in 10.0 mi WNW 10.4 mph - N/A   Clear
12:55 PM 1.4 °F -13.5 °F -16.6 °F 43% 30.36 in 10.0 mi West 9.2 mph - N/A   Clear
1:15 PM 3.2 °F -13.9 °F -16.6 °F 39% 30.35 in 10.0 mi West 12.7 mph - N/A   Clear
1:35 PM 3.2 °F -13.1 °F -16.6 °F 39% 30.35 in 10.0 mi WSW 11.5 mph - N/A   Clear
1:55 PM 3.2 °F -13.1 °F -16.6 °F 39% 30.34 in 10.0 mi WSW 11.5 mph - N/A   Clear
2:15 PM 3.2 °F -13.1 °F -14.8 °F 43% 30.34 in 10.0 mi West 11.5 mph - N/A   Clear
2:35 PM 3.2 °F -11.3 °F -14.8 °F 43% 30.32 in 10.0 mi WSW 9.2 mph - N/A   Clear
2:55 PM 5.0 °F -8.1 °F -14.8 °F 40% 30.32 in 10.0 mi West 8.1 mph - N/A   Clear
3:15 PM 5.0 °F -9.1 °F -14.8 °F 40% 30.32 in 10.0 mi West 9.2 mph - N/A   Clear
3:35 PM 6.8 °F -5.9 °F -14.8 °F 37% 30.32 in 10.0 mi WSW 8.1 mph - N/A   Clear
3:55 PM 6.8 °F -4.8 °F -14.8 °F 37% 30.31 in 10.0 mi WSW 6.9 mph - N/A   Clear
4:15 PM 6.8 °F -5.9 °F -14.8 °F 37% 30.30 in 10.0 mi SW 8.1 mph - N/A   Clear
4:35 PM 6.8 °F -4.8 °F -16.6 °F 34% 30.30 in 10.0 mi WSW 6.9 mph - N/A   Clear
4:55 PM 6.8 °F -6.9 °F -16.6 °F 34% 30.31 in 10.0 mi SW 9.2 mph - N/A   Clear
5:15 PM 5.0 °F -6.9 °F -16.6 °F 36% 30.31 in 10.0 mi SSW 6.9 mph - N/A   Clear
5:35 PM 3.2 °F -9.1 °F -16.6 °F 39% 30.31 in 10.0 mi SSW 6.9 mph - N/A   Clear
5:55 PM 3.2 °F -9.1 °F -16.6 °F 39% 30.32 in 10.0 mi SW 6.9 mph - N/A   Clear
6:15 PM 3.2 °F -9.1 °F -18.4 °F 36% 30.32 in 10.0 mi SW 6.9 mph - N/A   Clear
6:35 PM 3.2 °F -9.1 °F -16.6 °F 39% 30.32 in 10.0 mi SW 6.9 mph - N/A   Clear
6:55 PM 3.2 °F -11.3 °F -16.6 °F 39% 30.32 in 10.0 mi SW 9.2 mph - N/A   Clear
7:15 PM 3.2 °F -11.3 °F -16.6 °F 39% 30.32 in 10.0 mi WSW 9.2 mph - N/A   Clear
7:35 PM 3.2 °F -6.2 °F -14.8 °F 43% 30.32 in 10.0 mi West 4.6 mph - N/A   Clear
7:55 PM 3.2 °F -10.3 °F -16.6 °F 39% 30.33 in 9.0 mi WSW 8.1 mph - N/A   Clear
8:15 PM 1.4 °F -12.5 °F -16.6 °F 43% 30.33 in 10.0 mi West 8.1 mph - N/A   Clear
8:35 PM 1.4 °F -12.5 °F -16.6 °F 43% 30.34 in 10.0 mi West 8.1 mph - N/A   Clear
8:55 PM 1.4 °F -12.5 °F -16.6 °F 43% 30.34 in 10.0 mi WSW 8.1 mph - N/A   Clear
9:15 PM 1.4 °F -11.3 °F -16.6 °F 43% 30.34 in 10.0 mi WSW 6.9 mph - N/A   Clear
9:35 PM 1.4 °F -8.3 °F -16.6 °F 43% 30.36 in 10.0 mi West 4.6 mph - N/A   Clear
9:55 PM -0.4 °F - -16.6 °F 46% 30.38 in 10.0 mi Calm Calm - N/A   Clear
10:15 PM -0.4 °F - -16.6 °F 46% 30.40 in 10.0 mi Calm Calm - N/A   Clear
10:35 PM -0.4 °F -13.4 °F -16.6 °F 46% 30.41 in 10.0 mi NNW 6.9 mph - N/A   Clear
10:55 PM -0.4 °F -14.7 °F -16.6 °F 46% 30.41 in 10.0 mi NNW 8.1 mph - N/A   Clear
11:15 PM -0.4 °F -15.7 °F -16.6 °F 46% 30.41 in 10.0 mi NNW 9.2 mph - N/A   Clear
11:35 PM -0.4 °F -15.7 °F -13.0 °F 55% 30.42 in 10.0 mi North 9.2 mph - N/A   Clear
11:55 PM -0.4 °F -14.7 °F -11.2 °F 60% 30.41 in 10.0 mi North 8.1 mph - N/A   Clear